メインページ
METAR-TAF:

METAR-TAF

空港 :

Lankaran, アゼルバイジャン

緯度: 38-44-47N, 経度: 048-49-04E, 海抜: 9m

現時点の気象観測

当レポートは31分前の10:00(UTC)に作成
北/北東の風 5kt
気温 6°C
湿度 56%
気圧 1030 hPa
視程10km以上
高度5000ftの雲は散在している

METAR: UBBL 231000Z 03005KT 9999 SCT050 06/M02 Q1030 R33/CLRD// NOSIG RMK MT OP

時間: 14:31 (10:31 UTC)

予報

当レポートは5時間13分前の05:18(UTC)に作成
予報は23日の 06時(UTC)から 24日の 06時(UTC)まで有効
変向風 4kt
視程: 9000m
高度4000ftの雲は散在している
23日の 06時(UTC)から 23日の 12時(UTC)まで一時的に
の風 6kt
23日の 19時(UTC)から 24日の 04時(UTC)まで一時的に
視程: 5000m
高度1000ftの雲はほとんどない

TAF: UBBL 230518Z 2306/2406 VRB04KT 9000 SCT040 TX06/2310Z TNM00/2306Z TEMPO 2306/2312 35006KT TEMPO 2319/2404 5000 BR FEW010

4,000以上の空港の気象観測と天気予報(METAR報とTAF報)

利用可能な観測所は地図上に黄色い丸と赤い丸で示す。

丸の上にカーソルを重ねると観測所名を参照できる。

次にクリックすると気象観測と天気予報を参照できる。

マップの切り替え:黒色「×」印の緑ボタンをクリックして拡大、「-」印の緑ボタンをクリックして縮小、緑色の三角印をクリックして隣りの地図に切り替え


METAR-TAF: